createdAt,value
2022-09-18T00:06:22.724Z,98251.81
2022-09-18T00:09:32.850Z,98248.63
2022-09-18T00:12:41.871Z,98246.50
2022-09-18T00:16:04.708Z,98241.94
2022-09-18T00:19:11.925Z,98241.69
2022-09-18T00:22:23.074Z,98242.50
2022-09-18T00:25:30.698Z,98240.59
2022-09-18T00:28:40.039Z,98257.50
2022-09-18T00:31:55.209Z,98241.97
2022-09-18T00:35:06.587Z,98248.41
2022-09-18T00:38:18.196Z,98255.88
2022-09-18T00:41:31.206Z,98259.44
2022-09-18T00:44:41.690Z,98254.34
2022-09-18T00:47:54.450Z,98249.75
2022-09-18T00:51:01.871Z,98250.31
2022-09-18T00:54:18.001Z,98250.31
2022-09-18T00:57:27.761Z,98253.19
2022-09-18T01:00:35.938Z,98254.59
2022-09-18T01:03:44.894Z,98246.00
2022-09-18T01:06:56.387Z,98251.91
2022-09-18T01:10:16.495Z,98254.59
2022-09-18T01:13:34.965Z,98254.81
2022-09-18T01:16:49.082Z,98254.84
2022-09-18T01:20:25.757Z,98254.53
2022-09-18T01:24:03.052Z,98256.47
2022-09-18T01:27:12.943Z,98252.72
2022-09-18T01:30:32.277Z,98249.25
2022-09-18T01:33:43.595Z,98258.13
2022-09-18T01:36:56.113Z,98253.00
2022-09-18T01:40:15.885Z,98257.84
2022-09-18T01:43:24.584Z,98252.47
2022-09-18T01:46:34.610Z,98249.28
2022-09-18T01:49:46.329Z,98244.50
2022-09-18T01:52:59.792Z,98245.03
2022-09-18T01:56:12.896Z,98237.75
2022-09-18T01:59:30.882Z,98238.81
2022-09-18T02:02:47.371Z,98232.66
2022-09-18T02:05:58.528Z,98229.97
2022-09-18T02:09:16.876Z,98233.22
2022-09-18T02:12:29.997Z,98231.28
2022-09-18T02:15:41.924Z,98223.03
2022-09-18T02:18:59.110Z,98225.69
2022-09-18T02:22:14.791Z,98228.06
2022-09-18T02:25:41.225Z,98222.78
2022-09-18T02:29:52.187Z,98224.66
2022-09-18T02:33:22.312Z,98221.44
2022-09-18T02:37:25.162Z,98219.53
2022-09-18T02:44:38.352Z,98209.13
2022-09-18T02:51:55.957Z,98226.81
2022-09-18T02:55:43.698Z,98231.63
2022-09-18T02:58:57.050Z,98232.16
2022-09-18T03:05:46.351Z,98224.13
2022-09-18T03:09:10.579Z,98217.69
2022-09-18T03:12:18.949Z,98219.84
2022-09-18T03:15:24.842Z,98213.38
2022-09-18T03:18:33.262Z,98217.38
2022-09-18T03:21:42.779Z,98213.91
2022-09-18T03:24:52.516Z,98216.34
2022-09-18T03:28:04.722Z,98209.59
2022-09-18T03:31:11.258Z,98205.00
2022-09-18T03:34:19.853Z,98200.50
2022-09-18T03:37:28.792Z,98199.13
2022-09-18T03:40:38.185Z,98203.41
2022-09-18T03:43:47.120Z,98210.38
2022-09-18T03:46:53.790Z,98200.69
2022-09-18T03:50:01.933Z,98209.84
2022-09-18T03:53:10.603Z,98214.69
2022-09-18T03:56:18.667Z,98220.88
2022-09-18T03:59:28.367Z,98229.47
2022-09-18T04:02:38.168Z,98225.72
2022-09-18T04:05:44.808Z,98227.84
2022-09-18T04:08:51.698Z,98235.38
2022-09-18T04:11:59.392Z,98236.19
2022-09-18T04:15:07.552Z,98234.28
2022-09-18T04:18:17.866Z,98225.19
2022-09-18T04:21:25.362Z,98231.03
2022-09-18T04:24:32.345Z,98224.59
2022-09-18T04:27:40.145Z,98226.44
2022-09-18T04:30:50.694Z,98227.84
2022-09-18T04:33:59.851Z,98227.81
2022-09-18T04:37:10.278Z,98220.06
2022-09-18T04:40:26.597Z,98231.06
2022-09-18T04:43:39.644Z,98220.06
2022-09-18T04:46:55.092Z,98223.59
2022-09-18T04:50:05.130Z,98232.97
2022-09-18T04:53:10.858Z,98229.75
2022-09-18T04:56:17.616Z,98230.00
2022-09-18T04:59:25.773Z,98229.97
2022-09-18T05:02:35.905Z,98241.53
2022-09-18T05:05:42.643Z,98239.38
2022-09-18T05:08:50.088Z,98244.75
2022-09-18T05:11:56.988Z,98248.19
2022-09-18T05:15:04.102Z,98251.69
2022-09-18T05:18:16.453Z,98244.47
2022-09-18T05:21:23.326Z,98241.53
2022-09-18T05:24:31.194Z,98253.91
2022-09-18T05:27:41.227Z,98248.28
2022-09-18T05:30:51.811Z,98252.28
2022-09-18T05:33:59.237Z,98255.78
2022-09-18T05:37:05.878Z,98257.41
2022-09-18T05:40:18.469Z,98260.38
2022-09-18T05:43:25.223Z,98265.47
2022-09-18T05:46:32.904Z,98261.16
2022-09-18T05:49:42.165Z,98266.81
2022-09-18T05:52:51.965Z,98265.19
2022-09-18T05:55:58.180Z,98270.28
2022-09-18T05:59:08.117Z,98268.38
2022-09-18T06:02:15.265Z,98273.72
2022-09-18T06:05:23.246Z,98272.09
2022-09-18T06:08:34.431Z,98266.75
2022-09-18T06:11:41.684Z,98269.41
2022-09-18T06:15:05.598Z,98265.94
2022-09-18T06:18:15.230Z,98268.91
2022-09-18T06:21:25.477Z,98284.22
2022-09-18T06:24:50.200Z,98282.31
2022-09-18T06:28:22.969Z,98289.84
2022-09-18T06:31:58.102Z,98291.44
2022-09-18T06:35:04.388Z,98299.75
2022-09-18T06:38:16.797Z,98288.47
2022-09-18T06:41:50.492Z,98284.72
2022-09-18T06:44:57.303Z,98275.06
2022-09-18T06:51:56.923Z,98267.78
2022-09-18T06:55:36.151Z,98269.91
2022-09-18T06:58:44.767Z,98286.84
2022-09-18T07:01:57.734Z,98280.91
2022-09-18T07:05:07.111Z,98284.97
2022-09-18T07:08:19.459Z,98279.00
2022-09-18T07:11:27.555Z,98281.41
2022-09-18T07:14:36.499Z,98287.25
2022-09-18T07:17:45.518Z,98277.66
2022-09-18T07:20:51.490Z,98279.28
2022-09-18T07:24:00.102Z,98278.72
2022-09-18T07:27:08.495Z,98292.13
2022-09-18T07:30:23.292Z,98282.41
2022-09-18T07:33:31.603Z,98285.38
2022-09-18T07:36:44.546Z,98282.38
2022-09-18T07:39:56.599Z,98292.28
2022-09-18T07:43:13.098Z,98300.88
2022-09-18T07:46:21.239Z,98297.13
2022-09-18T07:49:27.265Z,98305.41
2022-09-18T07:52:34.167Z,98298.66
2022-09-18T07:55:43.784Z,98286.78
2022-09-18T07:58:53.171Z,98293.41
2022-09-18T08:02:02.231Z,98289.88
2022-09-18T08:05:08.500Z,98295.50
2022-09-18T08:08:18.418Z,98297.53
2022-09-18T08:11:25.305Z,98306.63
2022-09-18T08:14:33.825Z,98304.75
2022-09-18T08:17:47.464Z,98308.53
2022-09-18T08:20:54.445Z,98308.47
2022-09-18T08:24:03.177Z,98309.25
2022-09-18T08:27:09.783Z,98322.19
2022-09-18T08:30:18.570Z,98314.34
2022-09-18T08:33:26.685Z,98314.81
2022-09-18T08:36:37.193Z,98326.59
2022-09-18T08:40:05.249Z,98316.22
2022-09-18T08:43:19.494Z,98317.56
2022-09-18T08:46:35.747Z,98318.00
2022-09-18T08:49:51.371Z,98317.81
2022-09-18T08:53:03.265Z,98315.91
2022-09-18T08:56:17.842Z,98313.81
2022-09-18T08:59:36.223Z,98314.16
2022-09-18T09:02:47.258Z,98316.97
2022-09-18T09:06:01.293Z,98323.00
2022-09-18T09:09:38.194Z,98322.75
2022-09-18T09:12:52.764Z,98326.91
2022-09-18T09:16:03.943Z,98326.06
2022-09-18T09:19:25.514Z,98319.91
2022-09-18T09:22:35.351Z,98322.78
2022-09-18T09:25:45.113Z,98315.25
2022-09-18T09:28:55.661Z,98319.22
2022-09-18T09:32:01.383Z,98322.66
2022-09-18T09:35:22.617Z,98315.91
2022-09-18T09:38:42.253Z,98319.41
2022-09-18T09:41:50.498Z,98315.59
2022-09-18T09:44:56.736Z,98316.38
2022-09-18T09:48:07.615Z,98305.03
2022-09-18T09:51:18.104Z,98302.28
2022-09-18T09:54:21.074Z,98297.66
2022-09-18T09:57:32.534Z,98300.34
2022-09-18T10:00:40.957Z,98299.31
2022-09-18T10:03:56.418Z,98294.75
2022-09-18T10:07:11.144Z,98289.59
2022-09-18T10:10:22.925Z,98295.28
2022-09-18T10:13:31.818Z,98296.31
2022-09-18T10:16:39.180Z,98292.25
2022-09-18T10:19:44.758Z,98297.53
2022-09-18T10:22:49.006Z,98292.53
2022-09-18T10:25:55.588Z,98286.25
2022-09-18T10:28:58.923Z,98286.97
2022-09-18T10:32:02.464Z,98288.38
2022-09-18T10:35:55.614Z,98294.31
2022-09-18T10:39:01.406Z,98290.44
2022-09-18T10:42:05.954Z,98283.78
2022-09-18T10:45:23.013Z,98281.50
2022-09-18T10:48:27.596Z,98265.22
2022-09-18T10:51:30.343Z,98265.41
2022-09-18T10:54:34.445Z,98267.59
2022-09-18T10:57:39.266Z,98266.81
2022-09-18T11:00:48.514Z,98254.00
2022-09-18T11:04:01.936Z,98249.59
2022-09-18T11:07:07.549Z,98240.84
2022-09-18T11:10:17.891Z,98246.00
2022-09-18T11:13:24.238Z,98250.28
2022-09-18T11:16:37.852Z,98240.91
2022-09-18T11:19:41.030Z,98242.81
2022-09-18T11:22:45.252Z,98238.09
2022-09-18T11:25:50.011Z,98244.88
2022-09-18T11:29:02.234Z,98244.19
2022-09-18T11:32:14.290Z,98229.97
2022-09-18T11:35:19.157Z,98228.31
2022-09-18T11:38:22.033Z,98235.56
2022-09-18T11:41:31.598Z,98224.31
2022-09-18T11:44:35.911Z,98224.13
2022-09-18T11:47:44.908Z,98219.91
2022-09-18T11:50:47.726Z,98209.56
2022-09-18T11:53:55.315Z,98203.03
2022-09-18T11:57:01.713Z,98220.75
2022-09-18T12:00:08.941Z,98198.88
2022-09-18T12:03:18.358Z,98212.34
2022-09-18T12:06:29.252Z,98210.06
2022-09-18T12:09:56.415Z,98204.06
2022-09-18T12:13:41.744Z,98206.00
2022-09-18T12:16:50.648Z,98203.47
2022-09-18T12:19:57.908Z,98192.06
2022-09-18T12:23:02.053Z,98199.84
2022-09-18T12:26:11.835Z,98195.63
2022-09-18T12:29:25.706Z,98195.47
2022-09-18T12:32:55.089Z,98189.38
2022-09-18T12:36:34.831Z,98171.38
2022-09-18T12:40:04.500Z,98168.19
2022-09-18T12:43:26.121Z,98165.63
2022-09-18T12:46:48.468Z,98162.34
2022-09-18T12:50:03.652Z,98162.19
2022-09-18T12:53:23.080Z,98146.88
2022-09-18T12:56:41.830Z,98159.03
2022-09-18T12:59:59.557Z,98159.63
2022-09-18T13:03:12.561Z,98158.59
2022-09-18T13:06:20.274Z,98169.31
2022-09-18T13:09:27.969Z,98174.59
2022-09-18T13:12:36.232Z,98167.22
2022-09-18T13:15:44.518Z,98165.88
2022-09-18T13:19:05.674Z,98174.25
2022-09-18T13:22:17.921Z,98166.78
2022-09-18T13:25:35.077Z,98160.88
2022-09-18T13:28:46.825Z,98157.91
2022-09-18T13:31:57.711Z,98164.75
2022-09-18T13:35:08.104Z,98166.81
2022-09-18T13:38:18.818Z,98149.19
2022-09-18T13:41:30.337Z,98154.28
2022-09-18T13:44:39.572Z,98147.91
2022-09-18T13:48:05.593Z,98149.63
2022-09-18T13:51:22.829Z,98151.91
2022-09-18T13:54:33.268Z,98147.81
2022-09-18T13:57:42.842Z,98145.06
2022-09-18T14:00:53.304Z,98146.56
2022-09-18T14:04:02.722Z,98142.06
2022-09-18T14:07:48.231Z,98137.69
2022-09-18T14:11:17.993Z,98133.69
2022-09-18T14:18:20.888Z,98126.16
2022-09-18T14:21:34.806Z,98132.81
2022-09-18T14:25:01.202Z,98131.19
2022-09-18T14:28:09.605Z,98131.38
2022-09-18T14:31:31.563Z,98136.28
2022-09-18T14:34:42.272Z,98129.84
2022-09-18T14:37:47.789Z,98124.69
2022-09-18T14:41:06.267Z,98124.44
2022-09-18T14:44:22.129Z,98121.25
2022-09-18T14:47:31.616Z,98123.41
2022-09-18T14:50:38.699Z,98115.28
2022-09-18T14:53:47.942Z,98109.66
2022-09-18T14:56:58.524Z,98094.72
2022-09-18T15:00:18.410Z,98096.38
2022-09-18T15:06:58.162Z,98097.06
2022-09-18T15:10:03.861Z,98091.03
2022-09-18T15:13:14.577Z,98086.56
2022-09-18T15:16:24.334Z,98086.38
2022-09-18T15:19:30.443Z,98092.03
2022-09-18T15:22:35.262Z,98081.13
2022-09-18T15:25:44.043Z,98083.34
2022-09-18T15:28:52.698Z,98085.34
2022-09-18T15:31:58.220Z,98075.25
2022-09-18T15:35:03.709Z,98081.88
2022-09-18T15:38:16.007Z,98079.00
2022-09-18T15:41:31.905Z,98084.19
2022-09-18T15:45:12.167Z,98088.00
2022-09-18T15:48:37.884Z,98082.59
2022-09-18T15:51:43.498Z,98075.81
2022-09-18T15:55:07.399Z,98075.00
2022-09-18T15:58:26.745Z,98075.81
2022-09-18T16:01:35.902Z,98066.16
2022-09-18T16:04:42.375Z,98065.25
2022-09-18T16:07:57.203Z,98064.84
2022-09-18T16:11:02.556Z,98067.03
2022-09-18T16:14:30.509Z,98060.47
2022-09-18T16:17:40.857Z,98057.06
2022-09-18T16:21:03.233Z,98051.47
2022-09-18T16:24:11.152Z,98056.44
2022-09-18T16:27:18.637Z,98054.25
2022-09-18T16:30:25.463Z,98053.16
2022-09-18T16:33:32.436Z,98049.16
2022-09-18T16:36:40.509Z,98035.06
2022-09-18T16:39:45.584Z,98042.06
2022-09-18T16:42:50.809Z,98043.97
2022-09-18T16:45:56.584Z,98036.47
2022-09-18T16:49:02.362Z,98038.06
2022-09-18T16:52:10.821Z,98037.88
2022-09-18T16:55:16.761Z,98022.56
2022-09-18T16:58:23.238Z,98033.09
2022-09-18T17:01:36.266Z,98023.69
2022-09-18T17:04:53.202Z,98032.09
2022-09-18T17:07:59.765Z,98024.91
2022-09-18T17:11:05.416Z,98025.16
2022-09-18T17:14:10.923Z,98013.19
2022-09-18T17:17:16.757Z,98015.06
2022-09-18T17:20:23.872Z,98014.78
2022-09-18T17:23:31.096Z,98012.06
2022-09-18T17:26:39.659Z,98006.78
2022-09-18T17:29:44.494Z,98011.06
2022-09-18T17:32:49.972Z,98008.69
2022-09-18T17:35:55.009Z,98000.59
2022-09-18T17:39:05.766Z,98003.47
2022-09-18T17:42:10.749Z,97995.69
2022-09-18T17:45:15.624Z,97997.09
2022-09-18T17:48:20.437Z,97999.72
2022-09-18T17:51:28.641Z,97993.41
2022-09-18T17:54:36.863Z,97993.50
2022-09-18T17:57:44.890Z,97990.63
2022-09-18T18:00:50.159Z,97990.31
2022-09-18T18:03:54.914Z,97991.13
2022-09-18T18:06:59.628Z,97988.13
2022-09-18T18:10:06.449Z,97991.69
2022-09-18T18:13:11.004Z,97986.03
2022-09-18T18:16:23.857Z,97994.19
2022-09-18T18:19:29.150Z,97995.81
2022-09-18T18:22:34.037Z,97999.59
2022-09-18T18:25:40.678Z,98006.28
2022-09-18T18:28:45.446Z,98005.88
2022-09-18T18:31:52.126Z,98011.00
2022-09-18T18:34:57.244Z,98010.50
2022-09-18T18:38:02.042Z,98008.69
2022-09-18T18:41:11.498Z,98013.06
2022-09-18T18:44:18.142Z,98005.19
2022-09-18T18:47:25.720Z,98005.19
2022-09-18T18:50:34.434Z,98003.28
2022-09-18T18:53:39.402Z,98009.50
2022-09-18T18:56:46.326Z,98013.00
2022-09-18T18:59:51.175Z,98011.00
2022-09-18T19:02:56.801Z,98014.97
2022-09-18T19:06:03.855Z,98010.56
2022-09-18T19:09:11.694Z,98021.09
2022-09-18T19:12:18.653Z,98020.09
2022-09-18T19:15:23.697Z,98015.97
2022-09-18T19:18:28.295Z,98013.38
2022-09-18T19:21:33.077Z,98005.09
2022-09-18T19:24:37.638Z,98001.91
2022-09-18T19:27:44.096Z,98009.38
2022-09-18T19:30:49.620Z,98009.31
2022-09-18T19:33:55.526Z,98006.28
2022-09-18T19:37:00.862Z,98018.38
2022-09-18T19:40:06.024Z,98025.75
2022-09-18T19:43:17.151Z,98014.88
2022-09-18T19:46:35.049Z,98015.47
2022-09-18T19:49:40.737Z,98026.66
2022-09-18T19:52:48.528Z,98030.16
2022-09-18T19:55:56.672Z,98029.66
2022-09-18T19:59:03.409Z,98040.84
2022-09-18T20:02:09.126Z,98042.66
2022-09-18T20:05:14.108Z,98045.84
2022-09-18T20:08:21.546Z,98058.59
2022-09-18T20:11:26.689Z,98060.25
2022-09-18T20:14:34.999Z,98066.09
2022-09-18T20:17:40.704Z,98051.00
2022-09-18T20:20:50.328Z,98065.88
2022-09-18T20:23:58.738Z,98065.81
2022-09-18T20:27:03.715Z,98073.19
2022-09-18T20:30:12.968Z,98076.09
2022-09-18T20:33:18.282Z,98068.69
2022-09-18T20:36:23.096Z,98084.09
2022-09-18T20:39:28.030Z,98075.50
2022-09-18T20:42:32.431Z,98079.84
2022-09-18T20:45:36.369Z,98060.16
2022-09-18T20:48:41.744Z,98063.19
2022-09-18T20:51:44.397Z,98058.38
2022-09-18T20:54:47.045Z,98053.91
2022-09-18T20:57:49.993Z,98049.19
2022-09-18T21:00:55.184Z,98041.28
2022-09-18T21:03:59.821Z,98030.38
2022-09-18T21:07:02.520Z,98030.09
2022-09-18T21:10:06.275Z,98025.03
2022-09-18T21:13:08.941Z,98031.22
2022-09-18T21:16:14.045Z,98030.50
2022-09-18T21:19:19.858Z,98025.63
2022-09-18T21:22:22.480Z,98032.06
2022-09-18T21:25:25.531Z,98027.44
2022-09-18T21:28:28.379Z,98029.06
2022-09-18T21:31:39.194Z,98027.94
2022-09-18T21:34:42.392Z,98028.19
2022-09-18T21:37:45.061Z,98023.09
2022-09-18T21:40:47.994Z,98026.59
2022-09-18T21:43:53.992Z,98027.50
2022-09-18T21:47:00.866Z,98016.47
2022-09-18T21:50:03.791Z,98017.28
2022-09-18T21:53:06.431Z,98028.75
2022-09-18T21:56:10.912Z,98025.50
2022-09-18T21:59:15.458Z,98023.69
2022-09-18T22:02:22.063Z,98025.41
2022-09-18T22:05:25.017Z,98030.31
2022-09-18T22:08:29.905Z,98032.78
2022-09-18T22:11:36.759Z,98031.03
2022-09-18T22:14:39.537Z,98031.00
2022-09-18T22:17:43.828Z,98036.16
2022-09-18T22:20:46.875Z,98045.09
2022-09-18T22:23:50.942Z,98048.59
2022-09-18T22:26:56.370Z,98052.69
2022-09-18T22:29:58.997Z,98062.66
2022-09-18T22:33:05.547Z,98060.47
2022-09-18T22:36:08.965Z,98074.00
2022-09-18T22:39:12.603Z,98073.66
2022-09-18T22:42:15.398Z,98087.56
2022-09-18T22:45:18.933Z,98103.75
2022-09-18T22:48:23.089Z,98131.16
2022-09-18T22:51:27.424Z,98142.72
2022-09-18T22:54:30.053Z,98149.78
2022-09-18T22:57:32.721Z,98155.50
2022-09-18T23:00:35.956Z,98163.06
2022-09-18T23:03:40.804Z,98169.00
2022-09-18T23:06:43.692Z,98173.66
2022-09-18T23:09:47.383Z,98175.25
2022-09-18T23:12:50.081Z,98172.84
2022-09-18T23:15:52.679Z,98167.28
2022-09-18T23:18:58.962Z,98178.13
2022-09-18T23:22:02.497Z,98170.06
2022-09-18T23:25:05.696Z,98181.34
2022-09-18T23:28:08.445Z,98187.03
2022-09-18T23:31:14.298Z,98185.13
2022-09-18T23:34:20.069Z,98189.19
2022-09-18T23:37:22.776Z,98177.94
2022-09-18T23:40:25.495Z,98173.94
2022-09-18T23:43:28.224Z,98199.19
2022-09-18T23:46:33.039Z,98210.19
2022-09-18T23:49:37.035Z,98201.34
2022-09-18T23:52:39.669Z,98218.81
2022-09-18T23:55:42.316Z,98212.41
2022-09-18T23:58:45.754Z,98208.09
